createdAt,value
2023-02-03T00:02:00.749Z,100.00
2023-02-03T00:04:27.481Z,100.00
2023-02-03T00:06:54.165Z,100.00
2023-02-03T00:09:21.389Z,100.00
2023-02-03T00:11:48.262Z,100.00
2023-02-03T00:14:15.174Z,100.00
2023-02-03T00:16:41.799Z,100.00
2023-02-03T00:19:08.387Z,100.00
2023-02-03T00:21:35.052Z,100.00
2023-02-03T00:24:01.689Z,100.00
2023-02-03T00:26:28.784Z,100.00
2023-02-03T00:28:56.767Z,100.00
2023-02-03T00:31:24.996Z,100.00
2023-02-03T00:33:57.165Z,100.00
2023-02-03T00:36:25.103Z,100.00
2023-02-03T00:38:51.815Z,100.00
2023-02-03T00:41:19.650Z,100.00
2023-02-03T00:43:46.473Z,100.00
2023-02-03T00:46:13.456Z,100.00
2023-02-03T00:48:40.203Z,100.00
2023-02-03T00:51:06.957Z,100.00
2023-02-03T00:53:34.785Z,100.00
2023-02-03T00:56:01.338Z,100.00
2023-02-03T00:58:27.936Z,100.00
2023-02-03T01:00:58.100Z,100.00
2023-02-03T01:03:25.049Z,100.00
2023-02-03T01:05:51.760Z,100.00
2023-02-03T01:08:18.506Z,100.00
2023-02-03T01:10:45.182Z,100.00
2023-02-03T01:13:11.737Z,100.00
2023-02-03T01:15:38.543Z,100.00
2023-02-03T01:18:05.195Z,100.00
2023-02-03T01:20:31.828Z,100.00
2023-02-03T01:22:58.497Z,100.00
2023-02-03T01:25:25.151Z,100.00
2023-02-03T01:27:51.910Z,100.00
2023-02-03T01:30:18.961Z,100.00
2023-02-03T01:32:45.537Z,100.00
2023-02-03T01:35:12.209Z,100.00
2023-02-03T01:37:38.800Z,100.00
2023-02-03T01:40:05.913Z,100.00
2023-02-03T01:42:34.407Z,100.00
2023-02-03T01:45:01.090Z,100.00
2023-02-03T01:47:35.167Z,100.00
2023-02-03T01:50:04.913Z,100.00
2023-02-03T01:52:32.851Z,100.00
2023-02-03T01:55:03.375Z,100.00
2023-02-03T01:57:35.704Z,100.00
2023-02-03T02:00:04.547Z,100.00
2023-02-03T02:02:32.993Z,100.00
2023-02-03T02:05:16.254Z,100.00
2023-02-03T02:07:44.887Z,100.00
2023-02-03T02:10:11.713Z,100.00
2023-02-03T02:12:38.425Z,100.00
2023-02-03T02:15:05.840Z,100.00
2023-02-03T02:17:58.641Z,100.00
2023-02-03T02:20:55.063Z,100.00
2023-02-03T02:24:08.275Z,100.00
2023-02-03T02:26:40.875Z,100.00
2023-02-03T02:29:28.555Z,100.00
2023-02-03T02:32:32.693Z,100.00
2023-02-03T02:35:19.081Z,100.00
2023-02-03T02:38:23.330Z,100.00
2023-02-03T02:40:54.104Z,100.00
2023-02-03T02:43:28.501Z,100.00
2023-02-03T02:46:01.617Z,100.00
2023-02-03T02:48:44.766Z,100.00
2023-02-03T02:51:15.440Z,100.00
2023-02-03T02:54:02.627Z,100.00
2023-02-03T02:56:31.672Z,100.00
2023-02-03T02:59:01.979Z,100.00
2023-02-03T03:01:28.770Z,100.00
2023-02-03T03:03:55.603Z,100.00
2023-02-03T03:06:32.377Z,100.00
2023-02-03T03:09:16.726Z,100.00
2023-02-03T03:11:49.491Z,100.00
2023-02-03T03:14:20.050Z,100.00
2023-02-03T03:16:53.030Z,100.00
2023-02-03T03:19:24.890Z,100.00
2023-02-03T03:21:59.029Z,100.00
2023-02-03T03:24:32.509Z,100.00
2023-02-03T03:27:06.951Z,100.00
2023-02-03T03:29:42.278Z,100.00
2023-02-03T03:32:09.755Z,100.00
2023-02-03T03:34:36.673Z,100.00
2023-02-03T03:37:17.100Z,100.00
2023-02-03T03:39:53.977Z,100.00
2023-02-03T03:42:37.469Z,100.00
2023-02-03T03:45:12.182Z,100.00
2023-02-03T03:47:42.783Z,100.00
2023-02-03T03:50:15.556Z,100.00
2023-02-03T03:52:45.678Z,100.00
2023-02-03T03:55:14.605Z,100.00
2023-02-03T03:58:14.803Z,100.00
2023-02-03T04:00:42.868Z,100.00
2023-02-03T04:03:17.539Z,100.00
2023-02-03T04:05:44.361Z,100.00
2023-02-03T04:08:11.001Z,100.00
2023-02-03T04:10:41.094Z,100.00
2023-02-03T04:13:09.080Z,100.00
2023-02-03T04:15:35.719Z,100.00
2023-02-03T04:18:02.779Z,100.00
2023-02-03T04:20:31.482Z,100.00
2023-02-03T04:22:58.665Z,100.00
2023-02-03T04:25:26.586Z,100.00
2023-02-03T04:27:53.203Z,100.00
2023-02-03T04:30:19.911Z,100.00
2023-02-03T04:32:47.180Z,100.00
2023-02-03T04:35:14.704Z,100.00
2023-02-03T04:37:41.687Z,100.00
2023-02-03T04:40:10.525Z,100.00
2023-02-03T04:42:38.832Z,100.00
2023-02-03T04:45:07.448Z,100.00
2023-02-03T04:47:34.326Z,100.00
2023-02-03T04:50:01.228Z,100.00
2023-02-03T04:52:28.258Z,100.00
2023-02-03T04:54:55.135Z,100.00
2023-02-03T04:57:21.779Z,100.00
2023-02-03T04:59:48.463Z,100.00
2023-02-03T05:02:15.291Z,100.00
2023-02-03T05:04:41.882Z,100.00
2023-02-03T05:07:09.596Z,100.00
2023-02-03T05:09:36.411Z,100.00
2023-02-03T05:12:03.069Z,100.00
2023-02-03T05:14:29.732Z,100.00
2023-02-03T05:16:56.496Z,100.00
2023-02-03T05:19:23.174Z,100.00
2023-02-03T05:21:49.775Z,100.00
2023-02-03T05:24:16.417Z,100.00
2023-02-03T05:26:42.930Z,100.00
2023-02-03T05:29:11.833Z,100.00
2023-02-03T05:31:38.572Z,100.00
2023-02-03T05:34:05.482Z,100.00
2023-02-03T05:36:32.231Z,100.00
2023-02-03T05:38:59.075Z,100.00
2023-02-03T05:41:44.327Z,100.00
2023-02-03T05:44:10.922Z,100.00
2023-02-03T05:46:37.567Z,100.00
2023-02-03T05:49:04.162Z,100.00
2023-02-03T05:51:30.734Z,100.00
2023-02-03T05:53:57.481Z,100.00
2023-02-03T05:56:24.200Z,100.00
2023-02-03T05:58:53.367Z,100.00
2023-02-03T06:01:20.420Z,100.00
2023-02-03T06:03:48.067Z,100.00
2023-02-03T06:06:16.958Z,100.00
2023-02-03T06:08:43.800Z,100.00
2023-02-03T06:11:11.646Z,100.00
2023-02-03T06:13:38.302Z,100.00
2023-02-03T06:16:05.609Z,100.00
2023-02-03T06:18:32.275Z,100.00
2023-02-03T06:20:58.887Z,100.00
2023-02-03T06:23:25.442Z,100.00
2023-02-03T06:25:53.260Z,100.00
2023-02-03T06:28:20.234Z,100.00
2023-02-03T06:30:51.243Z,100.00
2023-02-03T06:33:17.993Z,100.00
2023-02-03T06:35:45.989Z,100.00
2023-02-03T06:38:12.752Z,100.00
2023-02-03T06:40:39.429Z,100.00
2023-02-03T06:43:06.152Z,100.00
2023-02-03T06:45:32.787Z,100.00
2023-02-03T06:47:59.388Z,100.00
2023-02-03T06:50:26.498Z,100.00
2023-02-03T06:52:53.322Z,100.00
2023-02-03T06:55:20.276Z,100.00
2023-02-03T06:57:48.313Z,100.00
2023-02-03T07:00:19.154Z,100.00
2023-02-03T07:02:46.900Z,100.00
2023-02-03T07:05:13.852Z,100.00
2023-02-03T07:07:41.536Z,100.00
2023-02-03T07:10:08.657Z,100.00
2023-02-03T07:12:36.832Z,100.00
2023-02-03T07:15:06.753Z,100.00
2023-02-03T07:17:33.694Z,100.00
2023-02-03T07:20:00.334Z,100.00
2023-02-03T07:22:28.117Z,100.00
2023-02-03T07:24:54.863Z,100.00
2023-02-03T07:27:21.527Z,100.00
2023-02-03T07:29:49.065Z,100.00
2023-02-03T07:32:15.695Z,100.00
2023-02-03T07:34:42.434Z,100.00
2023-02-03T07:37:08.986Z,100.00
2023-02-03T07:39:35.772Z,100.00
2023-02-03T07:42:02.405Z,100.00
2023-02-03T07:44:28.964Z,100.00
2023-02-03T07:46:55.693Z,100.00
2023-02-03T07:49:22.227Z,100.00
2023-02-03T07:51:48.907Z,100.00
2023-02-03T07:54:15.548Z,100.00
2023-02-03T07:56:43.108Z,100.00
2023-02-03T07:59:09.719Z,100.00
2023-02-03T08:01:36.476Z,100.00
2023-02-03T08:04:05.423Z,100.00
2023-02-03T08:06:32.757Z,100.00
2023-02-03T08:08:59.548Z,100.00
2023-02-03T08:11:26.160Z,100.00
2023-02-03T08:13:52.889Z,100.00
2023-02-03T08:16:19.578Z,100.00
2023-02-03T08:18:46.245Z,100.00
2023-02-03T08:21:12.916Z,100.00
2023-02-03T08:23:39.545Z,100.00
2023-02-03T08:26:06.318Z,100.00
2023-02-03T08:28:32.985Z,100.00
2023-02-03T08:30:59.715Z,100.00
2023-02-03T08:33:27.917Z,100.00
2023-02-03T08:35:54.813Z,100.00
2023-02-03T08:38:21.959Z,100.00
2023-02-03T08:40:48.930Z,100.00
2023-02-03T08:43:15.612Z,100.00
2023-02-03T08:45:42.394Z,100.00
2023-02-03T08:48:09.157Z,100.00
2023-02-03T08:50:35.785Z,100.00
2023-02-03T08:53:02.434Z,100.00
2023-02-03T08:55:29.297Z,100.00
2023-02-03T08:57:56.254Z,100.00
2023-02-03T09:00:23.211Z,100.00
2023-02-03T09:02:50.629Z,100.00
2023-02-03T09:05:18.576Z,100.00
2023-02-03T09:07:45.309Z,100.00
2023-02-03T09:10:14.349Z,100.00
2023-02-03T09:12:40.996Z,100.00
2023-02-03T09:15:08.035Z,100.00
2023-02-03T09:17:34.881Z,100.00
2023-02-03T09:20:01.617Z,100.00
2023-02-03T09:22:28.365Z,100.00
2023-02-03T09:24:55.208Z,100.00
2023-02-03T09:27:21.918Z,100.00
2023-02-03T09:29:48.591Z,100.00
2023-02-03T09:32:15.907Z,100.00
2023-02-03T09:34:42.673Z,100.00
2023-02-03T09:37:10.628Z,100.00
2023-02-03T09:39:38.185Z,100.00
2023-02-03T09:42:28.796Z,100.00
2023-02-03T09:44:58.187Z,100.00
2023-02-03T09:47:29.057Z,100.00
2023-02-03T09:49:59.380Z,100.00
2023-02-03T09:52:33.307Z,100.00
2023-02-03T09:55:14.348Z,100.00
2023-02-03T09:57:47.858Z,100.00
2023-02-03T10:00:22.527Z,100.00
2023-02-03T10:03:07.227Z,100.00
2023-02-03T10:06:15.636Z,100.00
2023-02-03T10:08:46.715Z,100.00
2023-02-03T10:11:28.360Z,100.00
2023-02-03T10:14:09.952Z,100.00
2023-02-03T10:17:06.908Z,100.00
2023-02-03T10:19:45.935Z,100.00
2023-02-03T10:22:21.514Z,100.00
2023-02-03T10:24:56.553Z,100.00
2023-02-03T10:27:25.209Z,100.00
2023-02-03T10:30:02.136Z,100.00
2023-02-03T10:32:29.155Z,100.00
2023-02-03T10:34:57.530Z,100.00
2023-02-03T10:37:30.518Z,100.00
2023-02-03T10:39:59.602Z,100.00
2023-02-03T10:42:51.248Z,100.00
2023-02-03T10:45:18.651Z,100.00
2023-02-03T10:47:56.193Z,100.00
2023-02-03T10:50:32.715Z,100.00
2023-02-03T10:53:18.279Z,100.00
2023-02-03T10:55:49.197Z,100.00
2023-02-03T10:58:31.854Z,100.00
2023-02-03T11:01:07.677Z,100.00
2023-02-03T11:03:35.092Z,100.00
2023-02-03T11:06:17.052Z,100.00
2023-02-03T11:08:46.708Z,100.00
2023-02-03T11:11:37.331Z,100.00
2023-02-03T11:14:03.986Z,100.00
2023-02-03T11:16:36.857Z,100.00
2023-02-03T11:19:17.051Z,100.00
2023-02-03T11:21:51.116Z,100.00
2023-02-03T11:24:22.271Z,100.00
2023-02-03T11:26:56.047Z,100.00
2023-02-03T11:29:24.533Z,100.00
2023-02-03T11:31:57.093Z,100.00
2023-02-03T11:34:58.348Z,100.00
2023-02-03T11:37:39.887Z,100.00
2023-02-03T11:40:12.691Z,100.00
2023-02-03T11:42:42.442Z,100.00
2023-02-03T11:45:26.032Z,100.00
2023-02-03T11:48:11.039Z,100.00
2023-02-03T11:51:00.336Z,100.00
2023-02-03T11:53:29.907Z,100.00
2023-02-03T11:56:25.446Z,100.00
2023-02-03T11:58:58.210Z,100.00
2023-02-03T12:01:55.311Z,100.00
2023-02-03T12:04:35.283Z,100.00
2023-02-03T12:07:20.317Z,100.00
2023-02-03T12:10:21.372Z,100.00
2023-02-03T12:13:12.648Z,100.00
2023-02-03T12:16:01.047Z,100.00
2023-02-03T12:18:47.126Z,100.00
2023-02-03T12:21:13.772Z,100.00
2023-02-03T12:23:49.407Z,100.00
2023-02-03T12:26:51.453Z,100.00
2023-02-03T12:29:33.602Z,100.00
2023-02-03T12:32:17.069Z,100.00
2023-02-03T12:34:53.848Z,100.00
2023-02-03T12:37:33.034Z,100.00
2023-02-03T12:40:06.101Z,100.00
2023-02-03T12:42:39.851Z,100.00
2023-02-03T12:45:12.356Z,100.00
2023-02-03T12:47:48.260Z,100.00
2023-02-03T12:50:40.688Z,100.00
2023-02-03T12:53:19.570Z,100.00
2023-02-03T12:56:01.092Z,100.00
2023-02-03T12:58:34.844Z,100.00
2023-02-03T13:01:11.680Z,100.00
2023-02-03T13:03:55.169Z,100.00
2023-02-03T13:06:29.324Z,100.00
2023-02-03T13:09:05.150Z,100.00
2023-02-03T13:11:39.792Z,100.00
2023-02-03T13:14:25.072Z,100.00
2023-02-03T13:16:58.298Z,100.00
2023-02-03T13:19:29.858Z,100.00
2023-02-03T13:21:56.602Z,100.00
2023-02-03T13:24:26.843Z,100.00
2023-02-03T13:27:44.942Z,100.00
2023-02-03T13:30:23.733Z,100.00
2023-02-03T13:33:16.693Z,100.00
2023-02-03T13:35:55.107Z,100.00
2023-02-03T13:38:43.434Z,100.00
2023-02-03T13:41:23.620Z,100.00
2023-02-03T13:43:52.402Z,100.00
2023-02-03T13:46:26.321Z,100.00
2023-02-03T13:48:57.145Z,100.00
2023-02-03T13:51:37.763Z,100.00
2023-02-03T13:54:08.517Z,100.00
2023-02-03T13:57:17.567Z,100.00
2023-02-03T13:59:46.172Z,100.00
2023-02-03T14:02:21.681Z,100.00
2023-02-03T14:04:48.438Z,100.00
2023-02-03T14:07:38.259Z,100.00
2023-02-03T14:10:14.231Z,100.00
2023-02-03T14:12:49.968Z,100.00
2023-02-03T14:15:21.773Z,100.00
2023-02-03T14:17:48.445Z,100.00
2023-02-03T14:20:27.688Z,100.00
2023-02-03T14:23:01.888Z,100.00
2023-02-03T14:25:29.715Z,100.00
2023-02-03T14:28:07.597Z,100.00
2023-02-03T14:31:12.849Z,100.00
2023-02-03T14:33:48.856Z,100.00
2023-02-03T14:36:41.547Z,100.00
2023-02-03T14:39:20.173Z,100.00
2023-02-03T14:42:28.235Z,100.00
2023-02-03T14:45:00.820Z,100.00
2023-02-03T14:47:48.139Z,99.69
2023-02-03T14:50:17.473Z,99.94
2023-02-03T14:52:51.505Z,99.21
2023-02-03T14:55:37.259Z,99.54
2023-02-03T14:58:19.462Z,98.97
2023-02-03T15:00:46.066Z,99.74
2023-02-03T15:03:15.375Z,100.00
2023-02-03T15:05:44.770Z,100.00
2023-02-03T15:08:36.233Z,100.00
2023-02-03T15:11:43.715Z,99.03
2023-02-03T15:14:25.994Z,98.90
2023-02-03T15:17:00.353Z,100.00
2023-02-03T15:19:32.795Z,98.01
2023-02-03T15:21:59.797Z,98.45
2023-02-03T15:24:33.768Z,97.59
2023-02-03T15:27:00.726Z,97.20
2023-02-03T15:29:33.271Z,95.55
2023-02-03T15:32:07.532Z,96.81
2023-02-03T15:34:49.427Z,97.52
2023-02-03T15:37:43.187Z,97.17
2023-02-03T15:40:18.046Z,98.01
2023-02-03T15:42:57.492Z,98.35
2023-02-03T15:45:28.981Z,95.27
2023-02-03T15:48:07.769Z,96.25
2023-02-03T15:50:36.220Z,98.53
2023-02-03T15:53:31.960Z,96.02
2023-02-03T15:56:06.144Z,95.19
2023-02-03T15:58:55.333Z,96.52
2023-02-03T16:01:26.945Z,96.40
2023-02-03T16:03:56.746Z,97.02
2023-02-03T16:06:45.142Z,95.70
2023-02-03T16:09:44.300Z,94.73
2023-02-03T16:12:14.532Z,95.48
2023-02-03T16:14:42.261Z,97.30
2023-02-03T16:17:21.497Z,96.79
2023-02-03T16:19:51.373Z,95.84
2023-02-03T16:22:32.628Z,96.07
2023-02-03T16:25:18.858Z,97.18
2023-02-03T16:28:14.333Z,96.83
2023-02-03T16:31:31.504Z,95.52
2023-02-03T16:34:16.780Z,99.80
2023-02-03T16:37:02.663Z,98.95
2023-02-03T16:39:48.084Z,96.20
2023-02-03T16:42:39.184Z,96.17
2023-02-03T16:45:37.251Z,96.74
2023-02-03T16:48:23.024Z,97.85
2023-02-03T16:50:59.783Z,97.21
2023-02-03T16:53:28.014Z,97.23
2023-02-03T16:55:56.990Z,98.05
2023-02-03T16:58:24.561Z,98.27
2023-02-03T17:00:52.960Z,97.56
2023-02-03T17:03:25.505Z,97.25
2023-02-03T17:05:52.462Z,96.94
2023-02-03T17:08:21.952Z,96.92
2023-02-03T17:10:50.013Z,97.15
2023-02-03T17:13:18.300Z,97.84
2023-02-03T17:15:52.781Z,97.37
2023-02-03T17:18:21.700Z,97.46
2023-02-03T17:20:48.467Z,99.39
2023-02-03T17:23:16.639Z,100.00
2023-02-03T17:25:48.273Z,99.62
2023-02-03T17:28:15.648Z,100.00
2023-02-03T17:30:43.560Z,100.00
2023-02-03T17:33:13.299Z,100.00
2023-02-03T17:35:42.246Z,100.00
2023-02-03T17:38:09.993Z,100.00
2023-02-03T17:54:27.145Z,100.00
2023-02-03T17:56:53.803Z,100.00
2023-02-03T17:59:20.541Z,100.00
2023-02-03T18:01:47.584Z,100.00
2023-02-03T18:04:14.475Z,100.00
2023-02-03T18:06:41.268Z,100.00
2023-02-03T18:09:10.239Z,100.00
2023-02-03T18:11:37.931Z,100.00
2023-02-03T18:14:05.520Z,100.00
2023-02-03T18:16:34.835Z,100.00
2023-02-03T18:19:07.068Z,100.00
2023-02-03T18:21:34.368Z,100.00
2023-02-03T18:24:02.033Z,100.00
2023-02-03T18:26:34.382Z,100.00
2023-02-03T18:29:01.704Z,100.00
2023-02-03T18:31:28.832Z,100.00
2023-02-03T18:33:55.979Z,100.00
2023-02-03T18:36:22.567Z,100.00
2023-02-03T18:38:49.394Z,100.00
2023-02-03T18:41:21.254Z,100.00
2023-02-03T18:43:51.538Z,100.00
2023-02-03T18:46:23.857Z,100.00
2023-02-03T18:48:51.065Z,100.00
2023-02-03T18:51:19.671Z,100.00
2023-02-03T18:53:49.027Z,100.00
2023-02-03T18:56:17.812Z,100.00
2023-02-03T18:58:44.763Z,100.00
2023-02-03T19:01:21.949Z,100.00
2023-02-03T19:03:49.163Z,100.00
2023-02-03T19:06:16.053Z,100.00
2023-02-03T19:08:42.883Z,100.00
2023-02-03T19:11:09.717Z,100.00
2023-02-03T19:13:36.437Z,100.00
2023-02-03T19:16:03.694Z,100.00
2023-02-03T19:18:30.714Z,100.00
2023-02-03T19:20:57.544Z,100.00
2023-02-03T19:23:24.470Z,100.00
2023-02-03T19:25:52.257Z,100.00
2023-02-03T19:28:29.942Z,100.00
2023-02-03T19:31:16.721Z,100.00
2023-02-03T19:33:43.686Z,100.00
2023-02-03T19:36:11.309Z,100.00
2023-02-03T19:38:38.252Z,100.00
2023-02-03T19:41:07.152Z,100.00
2023-02-03T19:43:34.104Z,100.00
2023-02-03T19:46:00.955Z,100.00
2023-02-03T19:48:27.939Z,100.00
2023-02-03T19:50:54.844Z,100.00
2023-02-03T19:53:21.738Z,100.00
2023-02-03T19:55:48.473Z,100.00
2023-02-03T19:58:15.319Z,100.00
2023-02-03T20:00:43.182Z,100.00
2023-02-03T20:03:10.520Z,100.00
2023-02-03T20:05:37.646Z,100.00
2023-02-03T20:08:05.353Z,100.00
2023-02-03T20:10:32.938Z,100.00
2023-02-03T20:13:01.116Z,100.00
2023-02-03T20:15:28.239Z,100.00
2023-02-03T20:17:55.074Z,100.00
2023-02-03T20:20:22.249Z,100.00
2023-02-03T20:22:49.298Z,100.00
2023-02-03T20:25:16.399Z,100.00
2023-02-03T20:27:43.130Z,100.00
2023-02-03T20:30:12.502Z,100.00
2023-02-03T20:32:39.467Z,100.00
2023-02-03T20:35:07.194Z,100.00
2023-02-03T20:37:36.162Z,100.00
2023-02-03T20:40:10.091Z,100.00
2023-02-03T20:42:36.691Z,100.00
2023-02-03T20:45:10.824Z,100.00
2023-02-03T20:47:37.826Z,100.00
2023-02-03T20:50:10.404Z,100.00
2023-02-03T20:52:37.155Z,100.00
2023-02-03T20:55:11.849Z,100.00
2023-02-03T20:57:38.580Z,100.00
2023-02-03T21:00:32.600Z,100.00
2023-02-03T21:03:17.665Z,100.00
2023-02-03T21:05:47.430Z,100.00
2023-02-03T21:08:17.330Z,100.00
2023-02-03T21:10:45.230Z,100.00
2023-02-03T21:13:27.723Z,100.00
2023-02-03T21:15:57.034Z,100.00
2023-02-03T21:19:02.988Z,100.00
2023-02-03T21:21:38.237Z,100.00
2023-02-03T21:24:23.507Z,100.00
2023-02-03T21:26:50.283Z,100.00
2023-02-03T21:29:32.072Z,100.00
2023-02-03T21:31:59.137Z,100.00
2023-02-03T21:34:34.574Z,100.00
2023-02-03T21:37:42.460Z,100.00
2023-02-03T21:40:25.661Z,100.00
2023-02-03T21:42:52.985Z,100.00
2023-02-03T21:45:22.557Z,100.00
2023-02-03T21:47:51.907Z,100.00
2023-02-03T21:50:31.482Z,100.00
2023-02-03T21:53:10.606Z,100.00
2023-02-03T21:55:39.255Z,100.00
2023-02-03T21:58:29.087Z,100.00
2023-02-03T22:00:57.848Z,100.00
2023-02-03T22:03:33.645Z,100.00
2023-02-03T22:06:09.370Z,100.00
2023-02-03T22:08:40.599Z,100.00
2023-02-03T22:11:07.450Z,100.00
2023-02-03T22:13:34.391Z,100.00
2023-02-03T22:16:01.778Z,100.00
2023-02-03T22:18:28.495Z,100.00
2023-02-03T22:20:55.282Z,100.00
2023-02-03T22:23:22.441Z,100.00
2023-02-03T22:25:49.560Z,100.00
2023-02-03T22:28:16.533Z,100.00
2023-02-03T22:30:43.366Z,100.00
2023-02-03T22:33:10.318Z,100.00
2023-02-03T22:35:36.966Z,100.00
2023-02-03T22:38:03.879Z,100.00
2023-02-03T22:40:30.900Z,100.00
2023-02-03T22:42:57.784Z,100.00
2023-02-03T22:45:24.632Z,100.00
2023-02-03T22:47:51.353Z,100.00
2023-02-03T22:50:24.589Z,100.00
2023-02-03T22:52:58.012Z,100.00
2023-02-03T22:55:25.230Z,100.00
2023-02-03T22:57:52.611Z,100.00
2023-02-03T23:00:22.555Z,100.00
2023-02-03T23:02:50.201Z,100.00
2023-02-03T23:05:18.428Z,100.00
2023-02-03T23:07:46.240Z,100.00
2023-02-03T23:10:17.557Z,100.00
2023-02-03T23:12:44.603Z,100.00
2023-02-03T23:15:13.181Z,100.00
2023-02-03T23:17:40.378Z,100.00
2023-02-03T23:20:09.438Z,100.00
2023-02-03T23:22:36.096Z,100.00
2023-02-03T23:25:03.718Z,100.00
2023-02-03T23:27:30.637Z,100.00
2023-02-03T23:29:57.603Z,100.00
2023-02-03T23:32:24.526Z,100.00
2023-02-03T23:35:09.769Z,100.00
2023-02-03T23:37:36.456Z,100.00
2023-02-03T23:40:04.806Z,100.00
2023-02-03T23:42:31.682Z,100.00
2023-02-03T23:44:59.301Z,100.00
2023-02-03T23:47:25.968Z,100.00
2023-02-03T23:49:52.614Z,100.00
2023-02-03T23:52:19.311Z,100.00
2023-02-03T23:54:45.985Z,100.00
2023-02-03T23:57:12.546Z,100.00
2023-02-03T23:59:39.095Z,100.00
